createdAt,value
2022-11-13T00:00:58.022Z,54.80
2022-11-13T00:01:58.355Z,55.10
2022-11-13T00:02:58.624Z,55.00
2022-11-13T00:03:58.887Z,57.50
2022-11-13T00:04:59.008Z,56.50
2022-11-13T00:05:59.311Z,58.30
2022-11-13T00:06:59.874Z,58.70
2022-11-13T00:07:59.824Z,56.80
2022-11-13T00:09:00.239Z,52.50
2022-11-13T00:10:00.433Z,50.90
2022-11-13T00:11:00.819Z,52.60
2022-11-13T00:12:01.012Z,49.50
2022-11-13T00:13:01.275Z,46.10
2022-11-13T00:14:01.542Z,42.20
2022-11-13T00:15:01.863Z,42.70
2022-11-13T00:16:02.036Z,42.50
2022-11-13T00:17:02.365Z,40.00
2022-11-13T00:18:02.537Z,37.60
2022-11-13T00:19:02.984Z,40.10
2022-11-13T00:20:04.582Z,39.60
2022-11-13T00:21:03.503Z,37.50
2022-11-13T00:22:03.683Z,35.80
2022-11-13T00:23:03.978Z,34.70
2022-11-13T00:24:04.307Z,31.70
2022-11-13T00:25:04.629Z,32.00
2022-11-13T00:26:04.978Z,33.70
2022-11-13T00:27:05.245Z,35.70
2022-11-13T00:28:05.578Z,34.40
2022-11-13T00:29:05.900Z,34.70
2022-11-13T00:30:06.190Z,35.40
2022-11-13T00:31:06.495Z,34.90
2022-11-13T00:32:06.824Z,34.80
2022-11-13T00:33:07.161Z,34.10
2022-11-13T00:34:32.979Z,34.10
2022-11-13T00:35:08.767Z,32.80
2022-11-13T00:36:08.206Z,32.80
2022-11-13T00:37:08.397Z,33.60
2022-11-13T00:38:08.638Z,33.30
2022-11-13T00:39:08.900Z,33.60
2022-11-13T00:40:09.268Z,34.00
2022-11-13T00:41:09.575Z,33.00
2022-11-13T00:42:09.893Z,34.20
2022-11-13T00:43:10.214Z,33.80
2022-11-13T00:44:10.496Z,32.20
2022-11-13T00:45:10.798Z,31.90
2022-11-13T00:46:11.209Z,30.60
2022-11-13T00:47:11.468Z,31.70
2022-11-13T00:48:11.797Z,33.20
2022-11-13T00:49:12.075Z,31.10
2022-11-13T00:50:12.423Z,32.10
2022-11-13T00:51:12.713Z,31.70
2022-11-13T00:52:13.059Z,31.90
2022-11-13T00:53:17.949Z,33.40
2022-11-13T00:54:13.677Z,35.80
2022-11-13T00:55:14.006Z,35.60
2022-11-13T00:56:14.303Z,34.40
2022-11-13T00:57:14.544Z,38.40
2022-11-13T00:58:14.801Z,38.60
2022-11-13T00:59:15.114Z,39.80
2022-11-13T01:00:15.468Z,37.40
2022-11-13T01:01:15.710Z,37.10
2022-11-13T01:02:15.958Z,35.40
2022-11-13T01:03:16.276Z,34.70
2022-11-13T01:04:23.525Z,36.00
2022-11-13T01:05:16.838Z,35.80
2022-11-13T01:06:17.147Z,38.00
2022-11-13T01:07:17.534Z,37.30
2022-11-13T01:08:17.804Z,39.30
2022-11-13T01:09:18.062Z,38.60
2022-11-13T01:10:18.381Z,38.20
2022-11-13T01:11:18.675Z,36.80
2022-11-13T01:12:18.951Z,36.70
2022-11-13T01:13:19.294Z,36.50
2022-11-13T01:14:19.603Z,35.80
2022-11-13T01:15:19.949Z,36.40
2022-11-13T01:16:20.270Z,35.00
2022-11-13T01:17:20.649Z,35.40
2022-11-13T01:18:20.828Z,36.50
2022-11-13T01:19:21.175Z,38.50
2022-11-13T01:20:21.419Z,40.60
2022-11-13T01:21:21.813Z,41.30
2022-11-13T01:22:22.071Z,43.40
2022-11-13T01:23:22.360Z,43.60
2022-11-13T01:24:22.549Z,42.80
2022-11-13T01:25:22.719Z,46.50
2022-11-13T01:26:23.070Z,48.00
2022-11-13T01:27:23.422Z,47.40
2022-11-13T01:28:23.581Z,46.10
2022-11-13T01:29:23.942Z,49.60
2022-11-13T01:30:24.164Z,48.20
2022-11-13T01:31:24.516Z,47.90
2022-11-13T01:32:24.768Z,47.00
2022-11-13T01:33:25.101Z,46.50
2022-11-13T01:34:25.409Z,45.30
2022-11-13T01:35:25.805Z,44.50
2022-11-13T01:36:26.100Z,41.00
2022-11-13T01:37:26.436Z,37.90
2022-11-13T01:38:26.982Z,38.80
2022-11-13T01:39:26.917Z,36.70
2022-11-13T01:40:27.249Z,35.80
2022-11-13T01:41:27.593Z,36.20
2022-11-13T01:42:27.874Z,35.40
2022-11-13T01:43:28.181Z,34.60
2022-11-13T01:44:28.491Z,34.00
2022-11-13T01:45:28.812Z,38.50
2022-11-13T01:46:29.170Z,38.10
2022-11-13T01:47:29.344Z,40.40
2022-11-13T01:48:29.840Z,40.50
2022-11-13T01:49:29.881Z,40.60
2022-11-13T01:50:30.218Z,40.70
2022-11-13T01:51:30.573Z,43.00
2022-11-13T01:52:30.782Z,43.00
2022-11-13T01:53:31.100Z,43.20
2022-11-13T01:54:31.473Z,43.20
2022-11-13T01:55:31.599Z,46.90
2022-11-13T01:56:31.964Z,47.30
2022-11-13T01:57:32.218Z,47.40
2022-11-13T01:58:32.598Z,47.20
2022-11-13T01:59:32.932Z,47.40
2022-11-13T02:00:33.252Z,43.60
2022-11-13T02:01:33.587Z,44.50
2022-11-13T02:02:33.733Z,42.30
2022-11-13T02:03:34.076Z,41.30
2022-11-13T02:04:34.320Z,41.10
2022-11-13T02:05:34.645Z,42.40
2022-11-13T02:06:34.968Z,45.70
2022-11-13T02:07:35.291Z,43.10
2022-11-13T02:08:35.574Z,46.30
2022-11-13T02:09:35.753Z,44.10
2022-11-13T02:10:36.122Z,38.70
2022-11-13T02:11:36.450Z,41.80
2022-11-13T02:12:36.720Z,43.70
2022-11-13T02:13:37.046Z,39.80
2022-11-13T02:14:37.420Z,40.40
2022-11-13T02:15:37.636Z,36.40
2022-11-13T02:16:37.978Z,34.80
2022-11-13T02:17:38.309Z,31.90
2022-11-13T02:18:38.661Z,33.60
2022-11-13T02:19:38.914Z,30.50
2022-11-13T02:20:39.221Z,29.10
2022-11-13T02:21:39.473Z,29.50
2022-11-13T02:22:39.767Z,29.10
2022-11-13T02:23:40.129Z,31.70
2022-11-13T02:24:44.794Z,37.40
2022-11-13T02:25:40.689Z,37.20
2022-11-13T02:26:41.003Z,34.50
2022-11-13T02:27:41.326Z,34.00
2022-11-13T02:28:41.646Z,32.20
2022-11-13T02:29:41.981Z,32.50
2022-11-13T02:30:42.313Z,30.90
2022-11-13T02:31:42.610Z,28.10
2022-11-13T02:32:42.971Z,30.70
2022-11-13T02:33:43.188Z,30.80
2022-11-13T02:34:43.512Z,30.90
2022-11-13T02:35:43.811Z,30.20
2022-11-13T02:36:44.149Z,29.40
2022-11-13T02:37:44.428Z,30.00
2022-11-13T02:38:44.826Z,32.00
2022-11-13T02:39:45.028Z,35.70
2022-11-13T02:40:45.365Z,36.90
2022-11-13T02:41:45.689Z,37.40
2022-11-13T02:42:45.978Z,38.00
2022-11-13T02:43:46.309Z,37.50
2022-11-13T02:44:46.650Z,38.20
2022-11-13T02:45:46.997Z,35.80
2022-11-13T02:46:47.361Z,35.20
2022-11-13T02:47:47.519Z,33.70
2022-11-13T02:48:47.803Z,32.50
2022-11-13T02:49:48.136Z,31.70
2022-11-13T02:50:48.327Z,30.90
2022-11-13T02:51:48.667Z,30.50
2022-11-13T02:52:49.003Z,28.40
2022-11-13T02:53:49.258Z,27.90
2022-11-13T02:54:49.498Z,28.20
2022-11-13T02:55:49.825Z,29.30
2022-11-13T02:56:50.194Z,31.10
2022-11-13T02:57:50.452Z,32.70
2022-11-13T02:58:50.854Z,35.50
2022-11-13T02:59:51.159Z,36.00
2022-11-13T03:00:51.449Z,37.70
2022-11-13T03:01:51.817Z,37.30
2022-11-13T03:02:52.029Z,36.50
2022-11-13T03:03:59.494Z,33.50
2022-11-13T03:05:53.841Z,30.80
2022-11-13T03:06:53.143Z,31.00
2022-11-13T03:07:53.466Z,29.80
2022-11-13T03:08:53.756Z,31.50
2022-11-13T03:09:54.110Z,31.00
2022-11-13T03:10:54.391Z,33.00
2022-11-13T03:11:54.680Z,36.70
2022-11-13T03:12:55.010Z,40.20
2022-11-13T03:13:55.331Z,38.10
2022-11-13T03:14:55.659Z,37.70
2022-11-13T03:15:55.967Z,40.70
2022-11-13T03:16:56.269Z,42.80
2022-11-13T03:17:56.599Z,42.00
2022-11-13T03:18:56.897Z,41.10
2022-11-13T03:19:57.208Z,38.00
2022-11-13T03:20:57.546Z,37.90
2022-11-13T03:21:57.769Z,35.00
2022-11-13T03:22:57.967Z,33.70
2022-11-13T03:23:58.264Z,33.50
2022-11-13T03:24:58.595Z,34.60
2022-11-13T03:25:58.920Z,32.50
2022-11-13T03:26:59.167Z,31.10
2022-11-13T03:27:59.475Z,30.70
2022-11-13T03:28:59.775Z,31.30
2022-11-13T03:30:00.048Z,30.20
2022-11-13T03:31:00.403Z,30.40
2022-11-13T03:32:00.707Z,29.30
2022-11-13T03:33:00.981Z,31.40
2022-11-13T03:34:01.261Z,31.60
2022-11-13T03:35:01.517Z,32.30
2022-11-13T03:36:01.838Z,32.20
2022-11-13T03:37:02.121Z,33.00
2022-11-13T03:38:02.501Z,34.00
2022-11-13T03:39:02.748Z,33.70
2022-11-13T03:40:03.072Z,34.20
2022-11-13T03:41:03.295Z,35.80
2022-11-13T03:42:03.606Z,36.00
2022-11-13T03:43:03.870Z,34.50
2022-11-13T03:44:04.255Z,33.50
2022-11-13T03:45:04.487Z,32.30
2022-11-13T03:46:04.897Z,31.30
2022-11-13T03:47:05.074Z,32.60
2022-11-13T03:48:05.408Z,31.90
2022-11-13T03:49:05.729Z,32.50
2022-11-13T03:50:06.112Z,31.90
2022-11-13T03:51:06.261Z,32.60
2022-11-13T03:52:06.644Z,29.80
2022-11-13T03:53:06.871Z,27.90
2022-11-13T03:54:07.251Z,28.50
2022-11-13T03:55:07.589Z,29.20
2022-11-13T03:56:07.889Z,29.90
2022-11-13T03:57:08.203Z,28.80
2022-11-13T03:58:08.459Z,26.90
2022-11-13T03:59:08.779Z,26.10
2022-11-13T04:00:09.096Z,25.00
2022-11-13T04:01:09.593Z,24.30
2022-11-13T04:02:09.746Z,24.40
2022-11-13T04:03:10.024Z,23.40
2022-11-13T04:04:10.464Z,23.70
2022-11-13T04:05:10.656Z,23.30
2022-11-13T04:06:10.987Z,22.70
2022-11-13T04:07:11.408Z,22.40
2022-11-13T04:08:11.599Z,23.00
2022-11-13T04:09:11.934Z,21.80
2022-11-13T04:10:12.134Z,22.90
2022-11-13T04:11:12.462Z,23.50
2022-11-13T04:12:12.874Z,23.90
2022-11-13T04:13:13.049Z,23.00
2022-11-13T04:14:13.345Z,22.60
2022-11-13T04:15:13.616Z,22.00
2022-11-13T04:16:13.921Z,22.60
2022-11-13T04:17:14.195Z,22.20
2022-11-13T04:18:14.483Z,22.70
2022-11-13T04:19:14.786Z,23.10
2022-11-13T04:20:15.096Z,22.20
2022-11-13T04:21:15.361Z,23.30
2022-11-13T04:22:15.655Z,22.40
2022-11-13T04:23:15.967Z,22.60
2022-11-13T04:24:16.307Z,22.90
2022-11-13T04:25:16.609Z,22.90
2022-11-13T04:26:16.954Z,22.10
2022-11-13T04:27:17.213Z,22.50
2022-11-13T04:28:17.577Z,23.30
2022-11-13T04:29:17.938Z,22.50
2022-11-13T04:30:18.137Z,22.10
2022-11-13T04:31:18.379Z,22.50
2022-11-13T04:32:18.767Z,22.40
2022-11-13T04:33:19.052Z,22.50
2022-11-13T04:34:19.766Z,22.80
2022-11-13T04:35:19.697Z,21.50
2022-11-13T04:36:19.991Z,21.80
2022-11-13T04:37:20.301Z,22.50
2022-11-13T04:38:20.646Z,23.20
2022-11-13T04:39:20.951Z,22.70
2022-11-13T04:40:21.273Z,23.30
2022-11-13T04:41:22.375Z,22.60
2022-11-13T04:42:22.849Z,23.10
2022-11-13T04:43:22.240Z,22.80
2022-11-13T04:44:22.410Z,23.60
2022-11-13T04:45:22.736Z,23.30
2022-11-13T04:46:23.054Z,23.40
2022-11-13T04:47:23.369Z,24.30
2022-11-13T04:48:23.604Z,25.00
2022-11-13T04:49:23.836Z,24.10
2022-11-13T04:50:24.131Z,24.90
2022-11-13T04:51:24.447Z,25.00
2022-11-13T04:52:24.659Z,24.80
2022-11-13T04:53:24.834Z,24.50
2022-11-13T04:54:28.743Z,24.30
2022-11-13T04:55:25.491Z,23.90
2022-11-13T04:56:25.896Z,23.10
2022-11-13T04:57:26.114Z,23.00
2022-11-13T04:58:26.660Z,24.60
2022-11-13T04:59:26.695Z,24.10
2022-11-13T05:00:26.987Z,23.70
2022-11-13T05:01:27.412Z,23.30
2022-11-13T05:02:27.636Z,23.30
2022-11-13T05:03:27.955Z,23.40
2022-11-13T05:04:28.297Z,22.90
2022-11-13T05:05:28.567Z,23.50
2022-11-13T05:06:28.957Z,23.80
2022-11-13T05:07:29.311Z,22.70
2022-11-13T05:08:30.043Z,22.50
2022-11-13T05:09:29.772Z,21.90
2022-11-13T05:10:29.943Z,21.80
2022-11-13T05:11:30.170Z,20.90
2022-11-13T05:12:30.534Z,21.20
2022-11-13T05:13:30.882Z,20.70
2022-11-13T05:14:31.242Z,20.30
2022-11-13T05:15:31.430Z,21.00
2022-11-13T05:16:31.796Z,22.70
2022-11-13T05:17:32.101Z,21.70
2022-11-13T05:18:32.437Z,22.20
2022-11-13T05:19:32.807Z,22.30
2022-11-13T05:20:33.053Z,22.00
2022-11-13T05:21:33.332Z,22.60
2022-11-13T05:22:33.644Z,22.20
2022-11-13T05:23:33.860Z,22.00
2022-11-13T05:24:34.179Z,22.60
2022-11-13T05:25:34.470Z,22.40
2022-11-13T05:26:34.829Z,22.60
2022-11-13T05:27:35.161Z,24.00
2022-11-13T05:28:35.430Z,23.20
2022-11-13T05:29:35.768Z,23.80
2022-11-13T05:30:36.101Z,23.80
2022-11-13T05:31:36.426Z,23.50
2022-11-13T05:32:36.823Z,24.40
2022-11-13T05:33:37.072Z,24.10
2022-11-13T05:34:37.446Z,24.10
2022-11-13T05:35:37.631Z,23.70
2022-11-13T05:36:37.969Z,24.60
2022-11-13T05:37:38.305Z,24.50
2022-11-13T05:38:38.620Z,24.50
2022-11-13T05:39:38.965Z,24.60
2022-11-13T05:40:39.139Z,25.40
2022-11-13T05:41:39.376Z,24.70
2022-11-13T05:42:39.737Z,25.50
2022-11-13T05:43:39.907Z,25.40
2022-11-13T05:44:40.242Z,25.00
2022-11-13T05:45:40.464Z,24.60
2022-11-13T05:46:40.787Z,25.30
2022-11-13T05:47:41.479Z,24.90
2022-11-13T05:48:41.242Z,24.80
2022-11-13T05:49:41.566Z,23.70
2022-11-13T05:50:41.865Z,25.20
2022-11-13T05:51:42.193Z,24.30
2022-11-13T05:52:42.356Z,24.30
2022-11-13T05:53:42.608Z,23.60
2022-11-13T05:54:42.947Z,23.70
2022-11-13T05:55:43.270Z,23.60
2022-11-13T05:56:43.593Z,24.00
2022-11-13T05:57:43.895Z,24.40
2022-11-13T05:58:44.218Z,25.20
2022-11-13T05:59:44.589Z,24.20
2022-11-13T06:00:44.904Z,24.80
2022-11-13T06:01:45.247Z,24.30
2022-11-13T06:02:45.492Z,24.20
2022-11-13T06:03:45.635Z,24.20
2022-11-13T06:04:45.891Z,24.90
2022-11-13T06:05:46.148Z,24.50
2022-11-13T06:06:46.539Z,24.00
2022-11-13T06:07:46.744Z,24.10
2022-11-13T06:08:47.193Z,24.10
2022-11-13T06:09:47.408Z,24.50
2022-11-13T06:10:48.564Z,24.30
2022-11-13T06:11:48.021Z,24.20
2022-11-13T06:12:48.311Z,24.60
2022-11-13T06:13:48.497Z,22.80
2022-11-13T06:14:48.861Z,24.10
2022-11-13T06:15:49.040Z,25.80
2022-11-13T06:16:49.357Z,24.20
2022-11-13T06:17:49.614Z,23.70
2022-11-13T06:18:49.831Z,25.00
2022-11-13T06:19:50.197Z,23.70
2022-11-13T06:20:50.483Z,23.00
2022-11-13T06:21:50.725Z,24.60
2022-11-13T06:22:51.038Z,23.70
2022-11-13T06:23:51.296Z,24.80
2022-11-13T06:24:51.566Z,24.00
2022-11-13T06:25:51.763Z,22.70
2022-11-13T06:26:52.113Z,23.20
2022-11-13T06:27:52.329Z,23.40
2022-11-13T06:28:52.721Z,23.30
2022-11-13T06:29:52.974Z,22.90
2022-11-13T06:30:53.227Z,22.40
2022-11-13T06:31:53.476Z,22.70
2022-11-13T06:32:53.771Z,22.40
2022-11-13T06:33:53.992Z,23.10
2022-11-13T06:34:54.315Z,22.80
2022-11-13T06:35:54.519Z,23.00
2022-11-13T06:36:54.775Z,22.30
2022-11-13T06:37:55.058Z,23.00
2022-11-13T06:38:55.372Z,23.70
2022-11-13T06:39:55.628Z,24.20
2022-11-13T06:40:55.904Z,23.90
2022-11-13T06:41:56.178Z,24.40
2022-11-13T06:42:56.452Z,24.90
2022-11-13T06:44:01.266Z,24.30
2022-11-13T06:44:57.971Z,24.90
2022-11-13T06:45:57.247Z,26.30
2022-11-13T06:46:57.536Z,26.40
2022-11-13T06:47:57.796Z,26.70
2022-11-13T06:48:58.044Z,26.60
2022-11-13T06:49:58.320Z,27.10
2022-11-13T06:50:58.610Z,25.30
2022-11-13T06:51:58.839Z,25.40
2022-11-13T06:52:59.105Z,24.60
2022-11-13T06:53:59.498Z,24.60
2022-11-13T06:54:59.662Z,25.40
2022-11-13T06:55:59.890Z,24.90
2022-11-13T06:57:00.200Z,24.70
2022-11-13T06:58:00.491Z,24.40
2022-11-13T06:59:00.691Z,24.10
2022-11-13T07:00:00.929Z,23.80
2022-11-13T07:01:01.196Z,24.60
2022-11-13T07:02:01.424Z,24.60
2022-11-13T07:03:01.740Z,24.60
2022-11-13T07:04:02.144Z,25.30
2022-11-13T07:05:02.226Z,25.20
2022-11-13T07:06:03.444Z,24.70
2022-11-13T07:07:02.747Z,23.90
2022-11-13T07:08:02.976Z,22.90
2022-11-13T07:09:03.218Z,23.90
2022-11-13T07:10:03.493Z,22.30
2022-11-13T07:11:03.792Z,22.50
2022-11-13T07:12:04.064Z,22.90
2022-11-13T07:13:04.340Z,23.10
2022-11-13T07:14:04.580Z,22.80
2022-11-13T07:15:04.900Z,22.80
2022-11-13T07:16:15.800Z,23.40
2022-11-13T07:17:09.712Z,24.30
2022-11-13T07:18:05.742Z,23.90
2022-11-13T07:19:05.984Z,24.50
2022-11-13T07:20:06.278Z,24.20
2022-11-13T07:21:06.588Z,23.60
2022-11-13T07:22:06.837Z,23.10
2022-11-13T07:23:07.123Z,23.10
2022-11-13T07:24:10.415Z,21.70
2022-11-13T07:25:08.664Z,21.70
2022-11-13T07:26:07.918Z,21.80
2022-11-13T07:27:08.607Z,21.80
2022-11-13T07:28:08.438Z,20.80
2022-11-13T07:29:08.670Z,21.30
2022-11-13T07:30:08.970Z,21.30
2022-11-13T07:31:09.241Z,23.50
2022-11-13T07:32:09.503Z,22.70
2022-11-13T07:33:09.738Z,21.20
2022-11-13T07:34:10.026Z,21.00
2022-11-13T07:35:10.257Z,21.90
2022-11-13T07:36:10.518Z,21.10
2022-11-13T07:37:11.040Z,22.00
2022-11-13T07:38:11.111Z,22.30
2022-11-13T07:39:11.424Z,21.80
2022-11-13T07:40:11.715Z,21.00
2022-11-13T07:41:11.963Z,20.90
2022-11-13T07:42:12.238Z,21.80
2022-11-13T07:43:12.502Z,22.20
2022-11-13T07:44:21.901Z,21.90
2022-11-13T07:45:14.030Z,22.10
2022-11-13T07:46:13.364Z,22.30
2022-11-13T07:47:13.636Z,21.70
2022-11-13T07:48:13.920Z,22.30
2022-11-13T07:49:14.161Z,22.10
2022-11-13T07:50:14.388Z,22.20
2022-11-13T07:51:14.690Z,22.50
2022-11-13T07:52:14.949Z,21.80
2022-11-13T07:53:15.242Z,22.30
2022-11-13T07:54:15.504Z,22.00
2022-11-13T07:55:15.781Z,21.10
2022-11-13T07:56:21.773Z,21.30
2022-11-13T07:57:17.300Z,21.80
2022-11-13T07:58:16.622Z,20.50
2022-11-13T07:59:16.873Z,21.00
2022-11-13T08:00:17.118Z,21.60
2022-11-13T08:01:17.448Z,21.90
2022-11-13T08:02:19.331Z,21.30
2022-11-13T08:03:18.027Z,20.70
2022-11-13T08:04:18.268Z,21.20
2022-11-13T08:05:18.576Z,21.40
2022-11-13T08:06:18.782Z,22.10
2022-11-13T08:07:19.102Z,22.00
2022-11-13T08:08:19.318Z,22.00
2022-11-13T08:09:19.600Z,20.90
2022-11-13T08:10:19.883Z,21.50
2022-11-13T08:11:20.149Z,20.80
2022-11-13T08:12:20.417Z,20.70
2022-11-13T08:13:20.677Z,20.60
2022-11-13T08:14:20.967Z,20.90
2022-11-13T08:15:21.209Z,20.40
2022-11-13T08:16:21.492Z,20.20
2022-11-13T08:17:21.741Z,19.80
2022-11-13T08:18:22.458Z,20.80
2022-11-13T08:19:22.336Z,20.40
2022-11-13T08:20:22.622Z,19.80
2022-11-13T08:21:23.013Z,19.10
2022-11-13T08:22:23.122Z,18.90
2022-11-13T08:23:23.355Z,18.40
2022-11-13T08:24:23.623Z,18.30
2022-11-13T08:25:23.857Z,17.90
2022-11-13T08:26:24.113Z,17.50
2022-11-13T08:27:24.347Z,18.10
2022-11-13T08:28:24.616Z,17.70
2022-11-13T08:29:24.905Z,17.60
2022-11-13T08:30:25.209Z,17.60
2022-11-13T08:31:25.465Z,17.40
2022-11-13T08:32:25.715Z,16.90
2022-11-13T08:33:25.987Z,17.20
2022-11-13T08:34:26.263Z,16.30
2022-11-13T08:35:29.325Z,17.10
2022-11-13T08:36:26.813Z,17.50
2022-11-13T08:37:27.108Z,16.40
2022-11-13T08:38:27.596Z,17.90
2022-11-13T08:39:27.656Z,19.10
2022-11-13T08:40:27.971Z,19.70
2022-11-13T08:41:28.223Z,20.80
2022-11-13T08:42:28.473Z,23.40
2022-11-13T08:43:28.850Z,23.10
2022-11-13T08:44:29.015Z,24.00
2022-11-13T08:45:29.276Z,27.00
2022-11-13T08:46:29.518Z,27.20
2022-11-13T08:47:29.854Z,27.50
2022-11-13T08:48:30.478Z,28.80
2022-11-13T08:49:30.344Z,28.80
2022-11-13T08:50:31.135Z,31.00
2022-11-13T08:51:30.959Z,29.10
2022-11-13T08:52:31.256Z,28.40
2022-11-13T08:53:31.528Z,28.10
2022-11-13T08:54:31.772Z,27.20
2022-11-13T08:55:32.148Z,26.50
2022-11-13T08:56:32.318Z,25.30
2022-11-13T08:57:32.579Z,26.10
2022-11-13T08:58:33.004Z,24.60
2022-11-13T08:59:33.132Z,22.90
2022-11-13T09:00:33.386Z,23.50
2022-11-13T09:01:33.678Z,23.60
2022-11-13T09:02:33.914Z,21.90
2022-11-13T09:03:35.174Z,19.40
2022-11-13T09:04:34.500Z,17.70
2022-11-13T09:05:34.738Z,17.90
2022-11-13T09:06:35.073Z,18.30
2022-11-13T09:07:35.358Z,17.40
2022-11-13T09:08:35.637Z,17.40
2022-11-13T09:09:35.914Z,17.50
2022-11-13T09:10:37.092Z,17.40
2022-11-13T09:11:36.469Z,19.40
2022-11-13T09:12:36.845Z,19.80
2022-11-13T09:13:42.804Z,19.70
2022-11-13T09:14:38.374Z,19.90
2022-11-13T09:15:37.613Z,19.90
2022-11-13T09:16:37.948Z,20.70
2022-11-13T09:17:38.214Z,21.90
2022-11-13T09:18:38.467Z,22.20
2022-11-13T09:19:38.717Z,21.60
2022-11-13T09:20:38.996Z,20.40
2022-11-13T09:21:39.282Z,19.30
2022-11-13T09:22:39.579Z,19.20
2022-11-13T09:23:39.913Z,18.60
2022-11-13T09:24:40.128Z,16.50
2022-11-13T09:25:40.405Z,15.90
2022-11-13T09:26:40.656Z,15.50
2022-11-13T09:27:40.925Z,15.80
2022-11-13T09:28:41.206Z,15.60
2022-11-13T09:29:41.480Z,15.10
2022-11-13T09:30:41.761Z,14.00
2022-11-13T09:31:42.109Z,14.30
2022-11-13T09:32:42.345Z,15.10
2022-11-13T09:33:42.629Z,15.20
2022-11-13T09:34:42.845Z,16.50
2022-11-13T09:35:43.103Z,16.80
2022-11-13T09:36:43.388Z,16.60
2022-11-13T09:37:43.785Z,17.20
2022-11-13T09:38:43.877Z,17.90
2022-11-13T09:39:44.152Z,19.30
2022-11-13T09:40:44.393Z,20.00
2022-11-13T09:41:44.700Z,19.30
2022-11-13T09:42:44.919Z,19.10
2022-11-13T09:43:45.213Z,17.00
2022-11-13T09:44:45.500Z,17.90
2022-11-13T09:45:45.774Z,17.50
2022-11-13T09:46:46.054Z,19.00
2022-11-13T09:47:46.324Z,19.00
2022-11-13T09:48:46.663Z,19.30
2022-11-13T09:49:46.887Z,20.80
2022-11-13T09:50:47.166Z,20.90
2022-11-13T09:51:47.415Z,19.70
2022-11-13T09:52:47.727Z,19.20
2022-11-13T09:53:47.981Z,19.50
2022-11-13T09:54:48.291Z,21.10
2022-11-13T09:55:48.561Z,21.40
2022-11-13T09:56:48.811Z,22.50
2022-11-13T09:57:49.040Z,25.80
2022-11-13T09:58:49.297Z,25.60
2022-11-13T09:59:49.593Z,22.60
2022-11-13T10:00:49.868Z,22.30
2022-11-13T10:01:50.113Z,20.60
2022-11-13T10:02:50.470Z,22.00
2022-11-13T10:04:06.021Z,23.00
2022-11-13T10:04:51.981Z,21.40
2022-11-13T10:05:51.253Z,21.00
2022-11-13T10:06:51.594Z,20.20
2022-11-13T10:07:51.886Z,20.20
2022-11-13T10:08:52.140Z,20.40
2022-11-13T10:09:52.403Z,22.70
2022-11-13T10:10:55.841Z,23.20
2022-11-13T10:11:52.918Z,23.00
2022-11-13T10:12:53.203Z,22.60
2022-11-13T10:13:53.458Z,22.50
2022-11-13T10:14:53.692Z,22.40
2022-11-13T10:15:53.953Z,22.80
2022-11-13T10:16:54.186Z,22.00
2022-11-13T10:17:56.871Z,21.60
2022-11-13T10:18:54.766Z,21.70
2022-11-13T10:19:55.021Z,20.60
2022-11-13T10:20:55.264Z,20.70
2022-11-13T10:22:07.659Z,21.20
2022-11-13T10:22:56.799Z,23.00
2022-11-13T10:23:56.121Z,22.80
2022-11-13T10:24:56.369Z,22.60
2022-11-13T10:25:56.649Z,23.70
2022-11-13T10:26:56.963Z,22.10
2022-11-13T10:27:57.238Z,22.90
2022-11-13T10:28:57.559Z,23.50
2022-11-13T10:29:57.781Z,22.70
2022-11-13T10:30:58.066Z,21.30
2022-11-13T10:31:58.353Z,19.60
2022-11-13T10:32:58.651Z,17.90
2022-11-13T10:33:59.055Z,18.70
2022-11-13T10:34:59.244Z,20.60
2022-11-13T10:35:59.505Z,21.40
2022-11-13T10:36:59.765Z,22.50
2022-11-13T10:38:06.407Z,21.80
2022-11-13T10:39:01.330Z,22.70
2022-11-13T10:40:00.635Z,22.30
2022-11-13T10:41:00.878Z,23.20
2022-11-13T10:42:01.215Z,21.20
2022-11-13T10:43:01.427Z,20.60
2022-11-13T10:44:01.670Z,20.50
2022-11-13T10:45:01.966Z,21.40
2022-11-13T10:46:02.253Z,21.00
2022-11-13T10:47:02.566Z,22.20
2022-11-13T10:48:04.721Z,23.20
2022-11-13T10:49:03.138Z,23.90
2022-11-13T10:50:03.397Z,23.30
2022-11-13T10:51:03.667Z,23.00
2022-11-13T10:52:09.948Z,22.70
2022-11-13T10:53:05.243Z,21.70
2022-11-13T10:54:04.561Z,21.50
2022-11-13T10:55:04.837Z,21.50
2022-11-13T10:56:05.102Z,21.20
2022-11-13T10:57:05.363Z,20.10
2022-11-13T10:58:05.623Z,19.60
2022-11-13T10:59:05.956Z,19.50
2022-11-13T11:00:06.219Z,19.30
2022-11-13T11:01:06.510Z,19.70
2022-11-13T11:02:06.770Z,18.50
2022-11-13T11:03:07.016Z,17.30
2022-11-13T11:04:07.351Z,17.20
2022-11-13T11:05:07.558Z,16.50
2022-11-13T11:06:07.853Z,15.70
2022-11-13T11:07:23.637Z,15.70
2022-11-13T11:08:09.411Z,15.70
2022-11-13T11:09:08.703Z,15.40
2022-11-13T11:10:08.979Z,15.20
2022-11-13T11:11:09.255Z,15.50
2022-11-13T11:12:09.577Z,15.10
2022-11-13T11:13:09.860Z,15.60
2022-11-13T11:14:10.132Z,16.80
2022-11-13T11:15:10.388Z,16.40
2022-11-13T11:16:10.663Z,17.70
2022-11-13T11:17:11.049Z,17.10
2022-11-13T11:18:11.237Z,17.50
2022-11-13T11:19:12.002Z,17.60
2022-11-13T11:20:11.797Z,17.90
2022-11-13T11:21:12.108Z,17.80
2022-11-13T11:22:12.327Z,17.10
2022-11-13T11:23:12.638Z,17.40
2022-11-13T11:24:12.905Z,17.40
2022-11-13T11:25:13.204Z,17.10
2022-11-13T11:26:13.483Z,17.00
2022-11-13T11:27:13.793Z,16.10
2022-11-13T11:28:14.057Z,16.40
2022-11-13T11:29:14.336Z,15.70
2022-11-13T11:30:14.604Z,15.00
2022-11-13T11:31:14.870Z,15.10
2022-11-13T11:32:15.209Z,14.70
2022-11-13T11:33:15.427Z,14.30
2022-11-13T11:34:15.724Z,13.50
2022-11-13T11:35:16.019Z,13.90
2022-11-13T11:36:16.262Z,14.00
2022-11-13T11:37:16.579Z,13.50
2022-11-13T11:38:16.857Z,12.80
2022-11-13T11:39:17.081Z,13.00
2022-11-13T11:40:17.339Z,12.60
2022-11-13T11:41:17.593Z,12.40
2022-11-13T11:42:17.912Z,12.50
2022-11-13T11:43:18.125Z,12.90
2022-11-13T11:44:18.367Z,13.10
2022-11-13T11:45:18.635Z,12.90
2022-11-13T11:46:18.927Z,12.90
2022-11-13T11:47:19.185Z,12.60
2022-11-13T11:48:19.455Z,12.50
2022-11-13T11:49:19.698Z,12.60
2022-11-13T11:50:19.932Z,12.50
2022-11-13T11:51:20.198Z,12.60
2022-11-13T11:52:20.473Z,13.70
2022-11-13T11:53:20.748Z,12.50
2022-11-13T11:54:21.031Z,12.80
2022-11-13T11:55:21.297Z,12.70
2022-11-13T11:56:21.554Z,13.00
2022-11-13T11:57:21.918Z,12.70
2022-11-13T11:58:22.130Z,12.60
2022-11-13T11:59:22.405Z,12.50
2022-11-13T12:00:22.717Z,12.30
2022-11-13T12:01:23.015Z,12.70
2022-11-13T12:02:23.353Z,12.50
2022-11-13T12:03:24.145Z,12.40
2022-11-13T12:04:23.824Z,12.60
2022-11-13T12:05:24.243Z,12.20
2022-11-13T12:06:24.385Z,11.90
2022-11-13T12:07:24.784Z,11.80
2022-11-13T12:08:24.924Z,12.30
2022-11-13T12:09:25.177Z,11.80
2022-11-13T12:10:25.460Z,12.00
2022-11-13T12:11:25.731Z,11.80
2022-11-13T12:12:25.983Z,11.90
2022-11-13T12:13:27.180Z,11.70
2022-11-13T12:14:26.596Z,11.60
2022-11-13T12:15:26.884Z,11.30
2022-11-13T12:16:27.186Z,11.50
2022-11-13T12:17:27.497Z,11.50
2022-11-13T12:18:28.182Z,11.40
2022-11-13T12:19:28.070Z,10.80
2022-11-13T12:20:28.374Z,11.50
2022-11-13T12:21:28.624Z,11.30
2022-11-13T12:22:30.962Z,11.00
2022-11-13T12:23:29.288Z,11.40
2022-11-13T12:24:29.520Z,11.60
2022-11-13T12:25:29.864Z,11.50
2022-11-13T12:26:30.100Z,11.30
2022-11-13T12:27:30.379Z,11.60
2022-11-13T12:28:30.997Z,11.40
2022-11-13T12:29:30.939Z,11.70
2022-11-13T12:30:31.199Z,11.70
2022-11-13T12:31:31.499Z,11.70
2022-11-13T12:32:31.820Z,11.30
2022-11-13T12:33:32.113Z,10.90
2022-11-13T12:34:32.361Z,11.10
2022-11-13T12:35:32.665Z,10.80
2022-11-13T12:36:32.928Z,10.40
2022-11-13T12:37:33.314Z,10.20
2022-11-13T12:38:33.520Z,9.90
2022-11-13T12:39:33.819Z,10.00
2022-11-13T12:40:34.048Z,10.30
2022-11-13T12:41:34.311Z,10.10
2022-11-13T12:42:34.613Z,10.40
2022-11-13T12:43:34.870Z,10.90
2022-11-13T12:44:35.193Z,10.50
2022-11-13T12:45:35.444Z,10.50
2022-11-13T12:46:35.714Z,9.90
2022-11-13T12:47:35.950Z,9.90
2022-11-13T12:48:36.217Z,10.00
2022-11-13T12:49:36.699Z,10.30
2022-11-13T12:50:36.792Z,10.50
2022-11-13T12:51:37.074Z,10.90
2022-11-13T12:52:37.350Z,11.00
2022-11-13T12:53:37.687Z,10.70
2022-11-13T12:54:37.950Z,10.30
2022-11-13T12:55:38.243Z,10.80
2022-11-13T12:56:38.457Z,10.50
2022-11-13T12:57:38.717Z,10.60